sensor_id;sensor_type;location;lat;lon;timestamp;pressure;altitude;pressure_sealevel;temperature
61595;BMP280;47397;48.194;11.632;2022-12-24T00:00:15;95387.75;;;10.99
61595;BMP280;47397;48.194;11.632;2022-12-24T00:01:16;95387.75;;;10.99
61595;BMP280;47397;48.194;11.632;2022-12-24T00:02:17;95388.53;;;11.01
61595;BMP280;47397;48.194;11.632;2022-12-24T00:03:17;95388.44;;;11.04
61595;BMP280;47397;48.194;11.632;2022-12-24T00:04:17;95382.94;;;10.91
61595;BMP280;47397;48.194;11.632;2022-12-24T00:05:19;95383.09;;;10.87
61595;BMP280;47397;48.194;11.632;2022-12-24T00:06:21;95393.94;;;10.92
61595;BMP280;47397;48.194;11.632;2022-12-24T00:07:22;95396.63;;;10.87
61595;BMP280;47397;48.194;11.632;2022-12-24T00:08:22;95404.16;;;10.90
61595;BMP280;47397;48.194;11.632;2022-12-24T00:09:23;95407.25;;;10.99
61595;BMP280;47397;48.194;11.632;2022-12-24T00:10:23;95417.75;;;10.89
61595;BMP280;47397;48.194;11.632;2022-12-24T00:11:24;95415.47;;;10.82
61595;BMP280;47397;48.194;11.632;2022-12-24T00:12:24;95413.75;;;10.82
61595;BMP280;47397;48.194;11.632;2022-12-24T00:13:25;95417.91;;;10.85
61595;BMP280;47397;48.194;11.632;2022-12-24T00:14:25;95411.00;;;10.88
61595;BMP280;47397;48.194;11.632;2022-12-24T00:15:26;95414.53;;;10.84
61595;BMP280;47397;48.194;11.632;2022-12-24T00:16:26;95414.47;;;10.86
61595;BMP280;47397;48.194;11.632;2022-12-24T00:17:27;95415.06;;;10.94
61595;BMP280;47397;48.194;11.632;2022-12-24T00:18:27;95419.16;;;10.98
61595;BMP280;47397;48.194;11.632;2022-12-24T00:19:28;95417.59;;;10.94
61595;BMP280;47397;48.194;11.632;2022-12-24T00:20:29;95420.72;;;10.76
61595;BMP280;47397;48.194;11.632;2022-12-24T00:21:30;95415.47;;;10.82
61595;BMP280;47397;48.194;11.632;2022-12-24T00:22:30;95427.97;;;10.88
61595;BMP280;47397;48.194;11.632;2022-12-24T00:23:31;95431.38;;;10.87
61595;BMP280;47397;48.194;11.632;2022-12-24T00:24:31;95427.88;;;10.91
61595;BMP280;47397;48.194;11.632;2022-12-24T00:25:32;95432.94;;;10.91
61595;BMP280;47397;48.194;11.632;2022-12-24T00:26:33;95426.34;;;10.85
61595;BMP280;47397;48.194;11.632;2022-12-24T00:27:33;95423.88;;;10.84
61595;BMP280;47397;48.194;11.632;2022-12-24T00:28:34;95425.53;;;10.85
61595;BMP280;47397;48.194;11.632;2022-12-24T00:29:34;95432.47;;;10.80
61595;BMP280;47397;48.194;11.632;2022-12-24T00:30:36;95436.75;;;10.78
61595;BMP280;47397;48.194;11.632;2022-12-24T00:31:36;95443.63;;;10.74
61595;BMP280;47397;48.194;11.632;2022-12-24T00:32:37;95438.59;;;10.73
61595;BMP280;47397;48.194;11.632;2022-12-24T00:33:37;95429.97;;;10.78
61595;BMP280;47397;48.194;11.632;2022-12-24T00:34:38;95421.75;;;10.70
61595;BMP280;47397;48.194;11.632;2022-12-24T00:35:40;95418.38;;;10.70
61595;BMP280;47397;48.194;11.632;2022-12-24T00:36:40;95419.94;;;10.74
61595;BMP280;47397;48.194;11.632;2022-12-24T00:37:41;95413.78;;;10.81
61595;BMP280;47397;48.194;11.632;2022-12-24T00:38:41;95426.41;;;10.84
61595;BMP280;47397;48.194;11.632;2022-12-24T00:39:41;95438.34;;;10.82
61595;BMP280;47397;48.194;11.632;2022-12-24T00:40:42;95439.94;;;10.84
61595;BMP280;47397;48.194;11.632;2022-12-24T00:41:42;95437.56;;;10.80
61595;BMP280;47397;48.194;11.632;2022-12-24T00:42:43;95430.88;;;10.76
61595;BMP280;47397;48.194;11.632;2022-12-24T00:43:43;95421.75;;;10.70
61595;BMP280;47397;48.194;11.632;2022-12-24T00:44:44;95431.91;;;10.70
61595;BMP280;47397;48.194;11.632;2022-12-24T00:45:44;95434.31;;;10.75
61595;BMP280;47397;48.194;11.632;2022-12-24T00:46:46;95429.97;;;10.78
61595;BMP280;47397;48.194;11.632;2022-12-24T00:47:46;95436.63;;;10.82
61595;BMP280;47397;48.194;11.632;2022-12-24T00:48:47;95443.59;;;10.76
61595;BMP280;47397;48.194;11.632;2022-12-24T00:49:47;95462.34;;;10.72
61595;BMP280;47397;48.194;11.632;2022-12-24T00:50:49;95463.25;;;10.71
61595;BMP280;47397;48.194;11.632;2022-12-24T00:51:50;95464.28;;;10.65
61595;BMP280;47397;48.194;11.632;2022-12-24T00:52:50;95463.34;;;10.68
61595;BMP280;47397;48.194;11.632;2022-12-24T00:53:51;95466.75;;;10.67
61595;BMP280;47397;48.194;11.632;2022-12-24T00:54:51;95459.19;;;10.65
61595;BMP280;47397;48.194;11.632;2022-12-24T00:55:52;95463.38;;;10.66
61595;BMP280;47397;48.194;11.632;2022-12-24T00:56:52;95464.81;;;10.75
61595;BMP280;47397;48.194;11.632;2022-12-24T00:57:53;95460.00;;;10.65
61595;BMP280;47397;48.194;11.632;2022-12-24T00:58:53;95457.31;;;10.70
61595;BMP280;47397;48.194;11.632;2022-12-24T00:59:54;95459.91;;;10.69
61595;BMP280;47397;48.194;11.632;2022-12-24T01:00:54;95459.09;;;10.68
61595;BMP280;47397;48.194;11.632;2022-12-24T01:01:55;95454.88;;;10.67
61595;BMP280;47397;48.194;11.632;2022-12-24T01:02:55;95452.25;;;10.70
61595;BMP280;47397;48.194;11.632;2022-12-24T01:03:55;95452.25;;;10.70
61595;BMP280;47397;48.194;11.632;2022-12-24T01:04:56;95450.69;;;10.66
61595;BMP280;47397;48.194;11.632;2022-12-24T01:05:58;95452.97;;;10.74
61595;BMP280;47397;48.194;11.632;2022-12-24T01:06:58;95452.16;;;10.73
61595;BMP280;47397;48.194;11.632;2022-12-24T01:07:58;95453.94;;;10.70
61595;BMP280;47397;48.194;11.632;2022-12-24T01:08:59;95460.78;;;10.68
61595;BMP280;47397;48.194;11.632;2022-12-24T01:09:59;95462.41;;;10.70
61595;BMP280;47397;48.194;11.632;2022-12-24T01:11:00;95466.66;;;10.70
61595;BMP280;47397;48.194;11.632;2022-12-24T01:12:01;95471.78;;;10.68
61595;BMP280;47397;48.194;11.632;2022-12-24T01:13:02;95472.63;;;10.69
61595;BMP280;47397;48.194;11.632;2022-12-24T01:14:02;95470.03;;;10.70
61595;BMP280;47397;48.194;11.632;2022-12-24T01:15:03;95480.94;;;10.74
61595;BMP280;47397;48.194;11.632;2022-12-24T01:16:12;95470.09;;;10.69
61595;BMP280;47397;48.194;11.632;2022-12-24T01:17:13;95471.00;;;10.66
61595;BMP280;47397;48.194;11.632;2022-12-24T01:18:13;95477.91;;;10.62
61595;BMP280;47397;48.194;11.632;2022-12-24T01:19:14;95480.34;;;10.65
61595;BMP280;47397;48.194;11.632;2022-12-24T01:20:16;95475.25;;;10.65
61595;BMP280;47397;48.194;11.632;2022-12-24T01:21:18;95472.03;;;10.60
61595;BMP280;47397;48.194;11.632;2022-12-24T01:22:18;95478.09;;;10.56
61595;BMP280;47397;48.194;11.632;2022-12-24T01:23:19;95483.91;;;10.60
61595;BMP280;47397;48.194;11.632;2022-12-24T01:24:19;95483.13;;;10.58
61595;BMP280;47397;48.194;11.632;2022-12-24T01:25:20;95478.59;;;10.68
61595;BMP280;47397;48.194;11.632;2022-12-24T01:26:20;95480.34;;;10.65
61595;BMP280;47397;48.194;11.632;2022-12-24T01:27:21;95472.78;;;10.64
61595;BMP280;47397;48.194;11.632;2022-12-24T01:28:21;95483.03;;;10.61
61595;BMP280;47397;48.194;11.632;2022-12-24T01:29:21;95483.75;;;10.64
61595;BMP280;47397;48.194;11.632;2022-12-24T01:30:22;95482.16;;;10.62
61595;BMP280;47397;48.194;11.632;2022-12-24T01:31:22;95487.28;;;10.60
61595;BMP280;47397;48.194;11.632;2022-12-24T01:32:23;95489.72;;;10.63
61595;BMP280;47397;48.194;11.632;2022-12-24T01:33:23;95484.59;;;10.65
61595;BMP280;47397;48.194;11.632;2022-12-24T01:34:24;95493.19;;;10.61
61595;BMP280;47397;48.194;11.632;2022-12-24T01:35:24;95494.91;;;10.60
61595;BMP280;47397;48.194;11.632;2022-12-24T01:36:26;95497.41;;;10.62
61595;BMP280;47397;48.194;11.632;2022-12-24T01:37:26;95494.84;;;10.62
61595;BMP280;47397;48.194;11.632;2022-12-24T01:38:27;95499.84;;;10.65
61595;BMP280;47397;48.194;11.632;2022-12-24T01:39:27;95502.53;;;10.60
61595;BMP280;47397;48.194;11.632;2022-12-24T01:40:28;95503.25;;;10.64
61595;BMP280;47397;48.194;11.632;2022-12-24T01:41:29;95506.59;;;10.66
61595;BMP280;47397;48.194;11.632;2022-12-24T01:42:30;95506.63;;;10.64
61595;BMP280;47397;48.194;11.632;2022-12-24T01:43:32;95512.59;;;10.63
61595;BMP280;47397;48.194;11.632;2022-12-24T01:44:34;95508.44;;;10.61
61595;BMP280;47397;48.194;11.632;2022-12-24T01:45:45;95507.75;;;10.56
61595;BMP280;47397;48.194;11.632;2022-12-24T01:46:47;95512.28;;;10.46
61595;BMP280;47397;48.194;11.632;2022-12-24T01:47:48;95512.78;;;10.57
61595;BMP280;47397;48.194;11.632;2022-12-24T01:48:51;95510.28;;;10.56
61595;BMP280;47397;48.194;11.632;2022-12-24T01:49:56;95515.34;;;10.57
61595;BMP280;47397;48.194;11.632;2022-12-24T01:51:01;95524.72;;;10.55
61595;BMP280;47397;48.194;11.632;2022-12-24T01:52:05;95515.38;;;10.56
61595;BMP280;47397;48.194;11.632;2022-12-24T01:53:07;95515.38;;;10.56
61595;BMP280;47397;48.194;11.632;2022-12-24T01:54:12;95524.72;;;10.55
61595;BMP280;47397;48.194;11.632;2022-12-24T01:55:15;95517.03;;;10.57
61595;BMP280;47397;48.194;11.632;2022-12-24T01:56:19;95526.38;;;10.56
61595;BMP280;47397;48.194;11.632;2022-12-24T01:57:22;95533.94;;;10.58
61595;BMP280;47397;48.194;11.632;2022-12-24T01:58:24;95536.59;;;10.55
61595;BMP280;47397;48.194;11.632;2022-12-24T01:59:25;95533.22;;;10.54
61595;BMP280;47397;48.194;11.632;2022-12-24T02:00:26;95533.03;;;10.60
61595;BMP280;47397;48.194;11.632;2022-12-24T02:01:26;95532.25;;;10.58
61595;BMP280;47397;48.194;11.632;2022-12-24T02:02:27;95526.38;;;10.56
61595;BMP280;47397;48.194;11.632;2022-12-24T02:03:28;95529.75;;;10.57
61595;BMP280;47397;48.194;11.632;2022-12-24T02:04:39;95529.84;;;10.54
61595;BMP280;47397;48.194;11.632;2022-12-24T02:05:46;95533.13;;;10.57
61595;BMP280;47397;48.194;11.632;2022-12-24T02:06:47;95532.34;;;10.55
61595;BMP280;47397;48.194;11.632;2022-12-24T02:07:48;95535.88;;;10.50
61595;BMP280;47397;48.194;11.632;2022-12-24T02:08:49;95525.63;;;10.53
61595;BMP280;47397;48.194;11.632;2022-12-24T02:09:53;95529.16;;;10.49
61595;BMP280;47397;48.194;11.632;2022-12-24T02:10:55;95528.97;;;10.55
61595;BMP280;47397;48.194;11.632;2022-12-24T02:11:56;95525.59;;;10.54
61595;BMP280;47397;48.194;11.632;2022-12-24T02:12:57;95535.78;;;10.53
61595;BMP280;47397;48.194;11.632;2022-12-24T02:13:59;95526.47;;;10.53
61595;BMP280;47397;48.194;11.632;2022-12-24T02:15:00;95539.97;;;10.55
61595;BMP280;47397;48.194;11.632;2022-12-24T02:16:06;95539.16;;;10.53
61595;BMP280;47397;48.194;11.632;2022-12-24T02:17:25;95539.97;;;10.55
61595;BMP280;47397;48.194;11.632;2022-12-24T02:18:32;95545.13;;;10.52
61595;BMP280;47397;48.194;11.632;2022-12-24T02:20:16;95547.13;;;10.43
61595;BMP280;47397;48.194;11.632;2022-12-24T02:21:42;95547.91;;;10.45
61595;BMP280;47397;48.194;11.632;2022-12-24T02:23:17;95535.94;;;10.48
61595;BMP280;47397;48.194;11.632;2022-12-24T02:26:10;95547.72;;;10.51
61595;BMP280;47397;48.194;11.632;2022-12-24T02:27:21;95541.81;;;10.50
61595;BMP280;47397;48.194;11.632;2022-12-24T02:28:40;95542.44;;;10.57
61595;BMP280;47397;48.194;11.632;2022-12-24T02:30:03;95537.22;;;10.61
61595;BMP280;47397;48.194;11.632;2022-12-24T02:31:06;95533.13;;;10.57
61595;BMP280;47397;48.194;11.632;2022-12-24T02:32:11;95532.34;;;10.55
61595;BMP280;47397;48.194;11.632;2022-12-24T02:33:19;95542.53;;;10.54
61595;BMP280;47397;48.194;11.632;2022-12-24T02:34:27;95540.78;;;10.56
61595;BMP280;47397;48.194;11.632;2022-12-24T02:35:36;95546.69;;;10.56
61595;BMP280;47397;48.194;11.632;2022-12-24T02:36:43;95541.63;;;10.56
61595;BMP280;47397;48.194;11.632;2022-12-24T02:37:48;95547.53;;;10.57
61595;BMP280;47397;48.194;11.632;2022-12-24T02:38:54;95551.66;;;10.61
61595;BMP280;47397;48.194;11.632;2022-12-24T02:40:01;95556.03;;;10.56
61595;BMP280;47397;48.194;11.632;2022-12-24T02:41:06;95563.66;;;10.56
61595;BMP280;47397;48.194;11.632;2022-12-24T02:42:08;95563.78;;;10.51
61595;BMP280;47397;48.194;11.632;2022-12-24T02:43:14;95563.69;;;10.54
61595;BMP280;47397;48.194;11.632;2022-12-24T02:44:16;95572.19;;;10.53
61595;BMP280;47397;48.194;11.632;2022-12-24T02:45:21;95573.81;;;10.56
61595;BMP280;47397;48.194;11.632;2022-12-24T02:46:25;95578.91;;;10.56
61595;BMP280;47397;48.194;11.632;2022-12-24T02:47:27;95579.72;;;10.56
61595;BMP280;47397;48.194;11.632;2022-12-24T02:48:29;95575.63;;;10.52
61595;BMP280;47397;48.194;11.632;2022-12-24T02:49:30;95573.22;;;10.48
61595;BMP280;47397;48.194;11.632;2022-12-24T02:50:30;95572.19;;;10.53
61595;BMP280;47397;48.194;11.632;2022-12-24T02:51:31;95579.78;;;10.55
61595;BMP280;47397;48.194;11.632;2022-12-24T02:52:34;95577.25;;;10.55
61595;BMP280;47397;48.194;11.632;2022-12-24T02:53:35;95574.84;;;10.50
61595;BMP280;47397;48.194;11.632;2022-12-24T02:54:36;95583.25;;;10.52
61595;BMP280;47397;48.194;11.632;2022-12-24T02:55:44;95580.00;;;10.47
61595;BMP280;47397;48.194;11.632;2022-12-24T02:56:57;95584.03;;;10.54
61595;BMP280;47397;48.194;11.632;2022-12-24T02:58:17;95585.88;;;10.49
61595;BMP280;47397;48.194;11.632;2022-12-24T02:59:34;95584.03;;;10.54
61595;BMP280;47397;48.194;11.632;2022-12-24T03:00:48;95579.19;;;10.47
61595;BMP280;47397;48.194;11.632;2022-12-24T03:01:57;95583.19;;;10.54
61595;BMP280;47397;48.194;11.632;2022-12-24T03:03:21;95574.69;;;10.55
61595;BMP280;47397;48.194;11.632;2022-12-24T03:04:31;95575.72;;;10.49
61595;BMP280;47397;48.194;11.632;2022-12-24T03:05:36;95575.81;;;10.46
61595;BMP280;47397;48.194;11.632;2022-12-24T03:06:42;95571.56;;;10.47
61595;BMP280;47397;48.194;11.632;2022-12-24T03:07:50;95575.72;;;10.49
61595;BMP280;47397;48.194;11.632;2022-12-24T03:08:56;95581.63;;;10.50
61595;BMP280;47397;48.194;11.632;2022-12-24T03:10:05;95568.97;;;10.48
61595;BMP280;47397;48.194;11.632;2022-12-24T03:11:10;95570.53;;;10.52
61595;BMP280;47397;48.194;11.632;2022-12-24T03:12:15;95573.06;;;10.52
61595;BMP280;47397;48.194;11.632;2022-12-24T03:13:19;95576.34;;;10.56
61595;BMP280;47397;48.194;11.632;2022-12-24T03:14:22;95577.41;;;10.49
61595;BMP280;47397;48.194;11.632;2022-12-24T03:15:24;95578.13;;;10.54
61595;BMP280;47397;48.194;11.632;2022-12-24T03:16:26;95580.56;;;10.57
61595;BMP280;47397;48.194;11.632;2022-12-24T03:17:27;95577.25;;;10.55
61595;BMP280;47397;48.194;11.632;2022-12-24T03:18:29;95587.50;;;10.52
61595;BMP280;47397;48.194;11.632;2022-12-24T03:19:30;95590.00;;;10.53
61595;BMP280;47397;48.194;11.632;2022-12-24T03:20:34;95587.50;;;10.52
61595;BMP280;47397;48.194;11.632;2022-12-24T03:21:38;95591.75;;;10.51
61595;BMP280;47397;48.194;11.632;2022-12-24T03:22:39;95585.03;;;10.49
61595;BMP280;47397;48.194;11.632;2022-12-24T03:23:40;95591.88;;;10.47
61595;BMP280;47397;48.194;11.632;2022-12-24T03:24:40;95586.56;;;10.54
61595;BMP280;47397;48.194;11.632;2022-12-24T03:25:42;95593.22;;;10.58
61595;BMP280;47397;48.194;11.632;2022-12-24T03:26:44;95599.09;;;10.60
61595;BMP280;47397;48.194;11.632;2022-12-24T03:27:45;95590.00;;;10.53
61595;BMP280;47397;48.194;11.632;2022-12-24T03:28:47;95589.13;;;10.54
61595;BMP280;47397;48.194;11.632;2022-12-24T03:29:47;95587.53;;;10.50
61595;BMP280;47397;48.194;11.632;2022-12-24T03:30:48;95582.09;;;10.62
61595;BMP280;47397;48.194;11.632;2022-12-24T03:31:52;95589.16;;;10.53
61595;BMP280;47397;48.194;11.632;2022-12-24T03:32:57;95576.41;;;10.54
61595;BMP280;47397;48.194;11.632;2022-12-24T03:33:58;95588.19;;;10.57
61595;BMP280;47397;48.194;11.632;2022-12-24T03:34:58;95589.03;;;10.57
61595;BMP280;47397;48.194;11.632;2022-12-24T03:35:59;95592.44;;;10.56
61595;BMP280;47397;48.194;11.632;2022-12-24T03:36:59;95596.72;;;10.54
61595;BMP280;47397;48.194;11.632;2022-12-24T03:38:00;95602.69;;;10.53
61595;BMP280;47397;48.194;11.632;2022-12-24T03:39:00;95601.88;;;10.53
61595;BMP280;47397;48.194;11.632;2022-12-24T03:40:01;95602.56;;;10.58
61595;BMP280;47397;48.194;11.632;2022-12-24T03:41:01;95614.44;;;10.57
61595;BMP280;47397;48.194;11.632;2022-12-24T03:42:02;95610.94;;;10.61
61595;BMP280;47397;48.194;11.632;2022-12-24T03:43:03;95614.44;;;10.57
61595;BMP280;47397;48.194;11.632;2022-12-24T03:44:03;95606.13;;;10.52
61595;BMP280;47397;48.194;11.632;2022-12-24T03:45:05;95614.47;;;10.56
61595;BMP280;47397;48.194;11.632;2022-12-24T03:46:06;95616.06;;;10.60
61595;BMP280;47397;48.194;11.632;2022-12-24T03:47:08;95622.28;;;10.50
61595;BMP280;47397;48.194;11.632;2022-12-24T03:48:08;95616.44;;;10.46
61595;BMP280;47397;48.194;11.632;2022-12-24T03:49:09;95613.88;;;10.48
61595;BMP280;47397;48.194;11.632;2022-12-24T03:50:09;95615.66;;;10.44
61595;BMP280;47397;48.194;11.632;2022-12-24T03:51:16;95614.94;;;10.39
61595;BMP280;47397;48.194;11.632;2022-12-24T03:52:17;95605.59;;;10.41
61595;BMP280;47397;48.194;11.632;2022-12-24T03:53:17;95602.13;;;10.44
61595;BMP280;47397;48.194;11.632;2022-12-24T03:54:17;95602.81;;;10.49
61595;BMP280;47397;48.194;11.632;2022-12-24T03:55:18;95602.69;;;10.53
61595;BMP280;47397;48.194;11.632;2022-12-24T03:56:18;95595.13;;;10.52
61595;BMP280;47397;48.194;11.632;2022-12-24T03:57:19;95589.47;;;10.42
61595;BMP280;47397;48.194;11.632;2022-12-24T03:58:19;95593.72;;;10.40
61595;BMP280;47397;48.194;11.632;2022-12-24T03:59:20;95591.03;;;10.46
61595;BMP280;47397;48.194;11.632;2022-12-24T04:00:20;95596.22;;;10.43
61595;BMP280;47397;48.194;11.632;2022-12-24T04:01:21;95601.22;;;10.46
61595;BMP280;47397;48.194;11.632;2022-12-24T04:02:22;95600.50;;;10.41
61595;BMP280;47397;48.194;11.632;2022-12-24T04:03:23;95607.22;;;10.44
61595;BMP280;47397;48.194;11.632;2022-12-24T04:04:23;95629.19;;;10.45
61595;BMP280;47397;48.194;11.632;2022-12-24T04:05:24;95622.22;;;10.51
61595;BMP280;47397;48.194;11.632;2022-12-24T04:06:24;95628.94;;;10.54
61595;BMP280;47397;48.194;11.632;2022-12-24T04:07:25;95626.47;;;10.51
61595;BMP280;47397;48.194;11.632;2022-12-24T04:08:25;95628.00;;;10.56
61595;BMP280;47397;48.194;11.632;2022-12-24T04:09:26;95630.59;;;10.55
61595;BMP280;47397;48.194;11.632;2022-12-24T04:10:26;95623.81;;;10.55
61595;BMP280;47397;48.194;11.632;2022-12-24T04:11:26;95632.47;;;10.48
61595;BMP280;47397;48.194;11.632;2022-12-24T04:12:27;95634.75;;;10.57
61595;BMP280;47397;48.194;11.632;2022-12-24T04:13:27;95637.22;;;10.60
61595;BMP280;47397;48.194;11.632;2022-12-24T04:14:28;95641.59;;;10.55
61595;BMP280;47397;48.194;11.632;2022-12-24T04:15:28;95637.47;;;10.51
61595;BMP280;47397;48.194;11.632;2022-12-24T04:16:29;95649.97;;;10.59
61595;BMP280;47397;48.194;11.632;2022-12-24T04:17:30;95648.44;;;10.53
61595;BMP280;47397;48.194;11.632;2022-12-24T04:18:31;95648.47;;;10.52
61595;BMP280;47397;48.194;11.632;2022-12-24T04:19:31;95651.97;;;10.48
61595;BMP280;47397;48.194;11.632;2022-12-24T04:20:32;95661.22;;;10.50
61595;BMP280;47397;48.194;11.632;2022-12-24T04:21:35;95662.09;;;10.49
61595;BMP280;47397;48.194;11.632;2022-12-24T04:22:35;95665.34;;;10.54
61595;BMP280;47397;48.194;11.632;2022-12-24T04:23:37;95663.72;;;10.52
61595;BMP280;47397;48.194;11.632;2022-12-24T04:24:37;95653.44;;;10.56
61595;BMP280;47397;48.194;11.632;2022-12-24T04:25:38;95665.44;;;10.51
61595;BMP280;47397;48.194;11.632;2022-12-24T04:26:38;95666.25;;;10.52
61595;BMP280;47397;48.194;11.632;2022-12-24T04:27:39;95664.72;;;10.46
61595;BMP280;47397;48.194;11.632;2022-12-24T04:28:41;95662.22;;;10.45
61595;BMP280;47397;48.194;11.632;2022-12-24T04:29:41;95665.69;;;10.42
61595;BMP280;47397;48.194;11.632;2022-12-24T04:30:42;95657.03;;;10.49
61595;BMP280;47397;48.194;11.632;2022-12-24T04:31:43;95661.09;;;10.55
61595;BMP280;47397;48.194;11.632;2022-12-24T04:32:45;95660.19;;;10.57
61595;BMP280;47397;48.194;11.632;2022-12-24T04:33:45;95667.09;;;10.52
61595;BMP280;47397;48.194;11.632;2022-12-24T04:34:46;95678.09;;;10.53
61595;BMP280;47397;48.194;11.632;2022-12-24T04:35:46;95677.25;;;10.52
61595;BMP280;47397;48.194;11.632;2022-12-24T04:36:46;95689.09;;;10.53
61595;BMP280;47397;48.194;11.632;2022-12-24T04:37:47;95675.38;;;10.59
61595;BMP280;47397;48.194;11.632;2022-12-24T04:38:47;95677.03;;;10.60
61595;BMP280;47397;48.194;11.632;2022-12-24T04:39:48;95673.75;;;10.56
61595;BMP280;47397;48.194;11.632;2022-12-24T04:40:56;95675.38;;;10.59
61595;BMP280;47397;48.194;11.632;2022-12-24T04:41:57;95670.31;;;10.59
61595;BMP280;47397;48.194;11.632;2022-12-24T04:42:57;95664.28;;;10.61
61595;BMP280;47397;48.194;11.632;2022-12-24T04:43:58;95664.34;;;10.60
61595;BMP280;47397;48.194;11.632;2022-12-24T04:44:58;95662.59;;;10.62
61595;BMP280;47397;48.194;11.632;2022-12-24T04:46:04;95668.63;;;10.58
61595;BMP280;47397;48.194;11.632;2022-12-24T04:47:04;95671.19;;;10.58
61595;BMP280;47397;48.194;11.632;2022-12-24T04:48:06;95667.75;;;10.59
61595;BMP280;47397;48.194;11.632;2022-12-24T04:49:07;95663.59;;;10.56
61595;BMP280;47397;48.194;11.632;2022-12-24T04:50:08;95672.84;;;10.59
61595;BMP280;47397;48.194;11.632;2022-12-24T04:51:09;95670.13;;;10.65
61595;BMP280;47397;48.194;11.632;2022-12-24T04:52:10;95678.63;;;10.64
61595;BMP280;47397;48.194;11.632;2022-12-24T04:53:10;95680.41;;;10.60
61595;BMP280;47397;48.194;11.632;2022-12-24T04:54:11;95682.09;;;10.61
61595;BMP280;47397;48.194;11.632;2022-12-24T04:55:11;95686.34;;;10.61
61595;BMP280;47397;48.194;11.632;2022-12-24T04:56:13;95692.16;;;10.64
61595;BMP280;47397;48.194;11.632;2022-12-24T04:57:14;95688.75;;;10.65
61595;BMP280;47397;48.194;11.632;2022-12-24T04:58:14;95687.97;;;10.63
61595;BMP280;47397;48.194;11.632;2022-12-24T04:59:14;95691.34;;;10.64
61595;BMP280;47397;48.194;11.632;2022-12-24T05:00:15;95692.91;;;10.68
61595;BMP280;47397;48.194;11.632;2022-12-24T05:01:18;95693.00;;;10.65
61595;BMP280;47397;48.194;11.632;2022-12-24T05:02:18;95692.25;;;10.61
61595;BMP280;47397;48.194;11.632;2022-12-24T05:03:20;95698.22;;;10.60
61595;BMP280;47397;48.194;11.632;2022-12-24T05:04:21;95699.78;;;10.64
61595;BMP280;47397;48.194;11.632;2022-12-24T05:05:21;95688.84;;;10.62
61595;BMP280;47397;48.194;11.632;2022-12-24T05:06:23;95696.41;;;10.64
61595;BMP280;47397;48.194;11.632;2022-12-24T05:07:24;95694.88;;;10.58
61595;BMP280;47397;48.194;11.632;2022-12-24T05:08:24;95694.09;;;10.56
61595;BMP280;47397;48.194;11.632;2022-12-24T05:09:25;95697.50;;;10.55
61595;BMP280;47397;48.194;11.632;2022-12-24T05:10:25;95699.03;;;10.61
61595;BMP280;47397;48.194;11.632;2022-12-24T05:11:26;95702.41;;;10.61
61595;BMP280;47397;48.194;11.632;2022-12-24T05:12:26;95700.78;;;10.59
61595;BMP280;47397;48.194;11.632;2022-12-24T05:13:28;95699.88;;;10.61
61595;BMP280;47397;48.194;11.632;2022-12-24T05:14:28;95708.47;;;10.57
61595;BMP280;47397;48.194;11.632;2022-12-24T05:15:29;95698.28;;;10.57
61595;BMP280;47397;48.194;11.632;2022-12-24T05:16:29;95700.75;;;10.60
61595;BMP280;47397;48.194;11.632;2022-12-24T05:17:29;95700.03;;;10.55
61595;BMP280;47397;48.194;11.632;2022-12-24T05:18:31;95691.63;;;10.53
61595;BMP280;47397;48.194;11.632;2022-12-24T05:19:32;95694.03;;;10.58
61595;BMP280;47397;48.194;11.632;2022-12-24T05:20:32;95692.41;;;10.55
61595;BMP280;47397;48.194;11.632;2022-12-24T05:21:32;95700.91;;;10.54
61595;BMP280;47397;48.194;11.632;2022-12-24T05:22:33;95692.38;;;10.57
61595;BMP280;47397;48.194;11.632;2022-12-24T05:23:33;95687.44;;;10.52
61595;BMP280;47397;48.194;11.632;2022-12-24T05:24:34;95690.75;;;10.54
61595;BMP280;47397;48.194;11.632;2022-12-24T05:25:36;95695.91;;;10.51
61595;BMP280;47397;48.194;11.632;2022-12-24T05:26:41;95701.84;;;10.52
61595;BMP280;47397;48.194;11.632;2022-12-24T05:27:42;95701.09;;;10.48
61595;BMP280;47397;48.194;11.632;2022-12-24T05:28:42;95705.16;;;10.54
61595;BMP280;47397;48.194;11.632;2022-12-24T05:29:43;95707.66;;;10.55
61595;BMP280;47397;48.194;11.632;2022-12-24T05:30:43;95700.97;;;10.53
61595;BMP280;47397;48.194;11.632;2022-12-24T05:31:44;95694.19;;;10.53
61595;BMP280;47397;48.194;11.632;2022-12-24T05:32:45;95700.03;;;10.55
61595;BMP280;47397;48.194;11.632;2022-12-24T05:33:47;95703.34;;;10.59
61595;BMP280;47397;48.194;11.632;2022-12-24T05:34:48;95700.03;;;10.55
61595;BMP280;47397;48.194;11.632;2022-12-24T05:35:50;95697.63;;;10.51
61595;BMP280;47397;48.194;11.632;2022-12-24T05:36:50;95699.34;;;10.50
61595;BMP280;47397;48.194;11.632;2022-12-24T05:37:51;95699.34;;;10.50
61595;BMP280;47397;48.194;11.632;2022-12-24T05:38:51;95700.16;;;10.51
61595;BMP280;47397;48.194;11.632;2022-12-24T05:39:52;95701.00;;;10.51
61595;BMP280;47397;48.194;11.632;2022-12-24T05:40:52;95693.38;;;10.51
61595;BMP280;47397;48.194;11.632;2022-12-24T05:41:52;95711.16;;;10.51
61595;BMP280;47397;48.194;11.632;2022-12-24T05:42:53;95700.13;;;10.52
61595;BMP280;47397;48.194;11.632;2022-12-24T05:43:53;95697.59;;;10.52
61595;BMP280;47397;48.194;11.632;2022-12-24T05:44:54;95705.22;;;10.52
61595;BMP280;47397;48.194;11.632;2022-12-24T05:45:57;95706.16;;;10.48
61595;BMP280;47397;48.194;11.632;2022-12-24T05:46:57;95715.38;;;10.52
61595;BMP280;47397;48.194;11.632;2022-12-24T05:47:58;95711.13;;;10.53
61595;BMP280;47397;48.194;11.632;2022-12-24T05:48:59;95705.34;;;10.48
61595;BMP280;47397;48.194;11.632;2022-12-24T05:50:00;95709.59;;;10.47
61595;BMP280;47397;48.194;11.632;2022-12-24T05:51:02;95717.97;;;10.51
61595;BMP280;47397;48.194;11.632;2022-12-24T05:52:03;95717.25;;;10.46
61595;BMP280;47397;48.194;11.632;2022-12-24T05:53:04;95711.28;;;10.47
61595;BMP280;47397;48.194;11.632;2022-12-24T05:54:04;95718.09;;;10.46
61595;BMP280;47397;48.194;11.632;2022-12-24T05:55:06;95721.34;;;10.51